createdAt,value
2024-02-13T00:03:55.604Z,3.30
2024-02-13T00:13:59.134Z,3.37
2024-02-13T00:24:03.513Z,3.33
2024-02-13T00:34:06.624Z,3.67
2024-02-13T00:44:10.997Z,2.80
2024-02-13T00:54:15.320Z,3.40
2024-02-13T01:04:19.867Z,4.07
2024-02-13T01:14:23.067Z,3.63
2024-02-13T01:24:27.867Z,3.77
2024-02-13T01:34:31.789Z,3.87
2024-02-13T01:44:36.068Z,4.10
2024-02-13T01:54:39.111Z,4.50
2024-02-13T02:04:43.759Z,4.40
2024-02-13T02:14:46.991Z,3.97
2024-02-13T02:24:53.311Z,3.13
2024-02-13T02:34:57.591Z,3.17
2024-02-13T02:45:00.942Z,2.70
2024-02-13T02:55:07.133Z,2.50
2024-02-13T03:05:11.137Z,2.87
2024-02-13T03:15:15.341Z,2.60
2024-02-13T03:25:18.454Z,3.20
2024-02-13T03:35:22.862Z,2.80
2024-02-13T03:45:25.929Z,2.80
2024-02-13T03:55:30.294Z,2.40
2024-02-13T04:05:38.719Z,2.20
2024-02-13T04:15:43.444Z,2.17
2024-02-13T04:25:46.456Z,2.43
2024-02-13T04:35:51.018Z,2.80
2024-02-13T04:45:53.993Z,2.60
2024-02-13T04:55:59.312Z,2.60
2024-02-13T05:06:19.848Z,2.07
2024-02-13T05:16:25.368Z,1.90
2024-02-13T05:26:28.746Z,1.63
2024-02-13T05:36:33.672Z,1.30
2024-02-13T05:46:37.417Z,1.13
2024-02-13T05:56:41.815Z,1.60
2024-02-13T06:06:46.256Z,1.23
2024-02-13T06:16:50.537Z,1.50
2024-02-13T06:26:56.047Z,1.60
2024-02-13T06:37:03.127Z,1.20
2024-02-13T06:47:08.154Z,1.40
2024-02-13T06:57:12.590Z,1.67
2024-02-13T07:07:28.532Z,1.57
2024-02-13T07:17:49.007Z,1.23
2024-02-13T07:27:59.952Z,1.70
2024-02-13T07:38:05.813Z,1.30
2024-02-13T07:48:12.533Z,0.90
2024-02-13T07:58:17.021Z,0.90
2024-02-13T08:08:20.104Z,1.27
2024-02-13T08:18:26.163Z,1.13
2024-02-13T08:28:29.375Z,1.07
2024-02-13T08:38:33.880Z,1.20
2024-02-13T08:48:38.665Z,1.00
2024-02-13T08:58:43.428Z,1.00
2024-02-13T09:08:46.373Z,1.10
2024-02-13T09:18:51.038Z,1.00
2024-02-13T09:28:55.103Z,0.90
2024-02-13T09:39:00.063Z,0.90
2024-02-13T09:49:06.362Z,0.77
2024-02-13T09:59:13.376Z,0.60
2024-02-13T10:09:17.771Z,0.90
2024-02-13T10:19:28.657Z,0.90
2024-02-13T10:29:41.538Z,0.90
2024-02-13T10:39:48.748Z,0.60
2024-02-13T10:49:55.326Z,0.60
2024-02-13T11:00:03.199Z,0.70
2024-02-13T11:10:10.348Z,0.83
2024-02-13T11:20:15.964Z,0.70
2024-02-13T11:30:24.767Z,0.60
2024-02-13T11:40:30.044Z,0.50
2024-02-13T11:50:34.042Z,0.60
2024-02-13T12:00:38.629Z,0.73
2024-02-13T12:10:41.835Z,0.30
2024-02-13T12:20:51.162Z,0.60
2024-02-13T12:30:57.148Z,0.40
2024-02-13T12:41:01.722Z,0.60
2024-02-13T12:51:05.832Z,0.70
2024-02-13T13:01:11.247Z,0.83
2024-02-13T13:11:14.990Z,0.73
2024-02-13T13:21:19.730Z,0.70
2024-02-13T13:31:23.641Z,0.53
2024-02-13T13:41:29.096Z,0.60
2024-02-13T13:51:35.051Z,0.60
2024-02-13T14:01:40.499Z,0.73
2024-02-13T14:11:43.719Z,0.90
2024-02-13T14:21:48.097Z,0.83
2024-02-13T14:31:51.386Z,0.80
2024-02-13T14:41:56.090Z,0.90
2024-02-13T14:51:59.070Z,0.90
2024-02-13T15:02:05.789Z,0.97
2024-02-13T15:12:09.167Z,1.00
2024-02-13T15:22:13.562Z,0.90
2024-02-13T15:32:17.351Z,0.90
2024-02-13T15:42:39.555Z,1.10
2024-02-13T15:52:42.648Z,1.13
2024-02-13T16:02:47.835Z,1.10
2024-02-13T16:12:51.891Z,1.10
2024-02-13T16:22:56.546Z,1.40
2024-02-13T16:32:59.794Z,1.40
2024-02-13T16:43:05.387Z,1.40
2024-02-13T16:53:08.805Z,3.03
2024-02-13T17:03:14.444Z,1.97
2024-02-13T17:13:17.729Z,2.07
2024-02-13T17:23:22.217Z,2.00
2024-02-13T17:33:25.404Z,1.87
2024-02-13T17:43:32.454Z,1.60
2024-02-13T17:53:36.419Z,1.77
2024-02-13T18:03:41.828Z,1.40
2024-02-13T18:13:45.942Z,1.40
2024-02-13T18:23:55.508Z,2.23
2024-02-13T18:33:59.508Z,1.63
2024-02-13T18:44:03.992Z,4.00
2024-02-13T18:54:07.094Z,1.90
2024-02-13T19:04:11.442Z,2.37
2024-02-13T19:14:14.481Z,3.47
2024-02-13T19:24:19.070Z,2.70
2024-02-13T19:34:23.550Z,4.33
2024-02-13T19:44:29.355Z,2.57
2024-02-13T19:54:32.478Z,2.07
2024-02-13T20:04:36.776Z,2.63
2024-02-13T20:14:40.188Z,2.37
2024-02-13T20:24:44.749Z,2.50
2024-02-13T20:34:47.915Z,2.77
2024-02-13T20:44:55.498Z,3.30
2024-02-13T20:55:01.052Z,2.70
2024-02-13T21:05:06.685Z,2.47
2024-02-13T21:15:13.210Z,2.40
2024-02-13T21:25:17.911Z,2.37
2024-02-13T21:35:22.463Z,1.90
2024-02-13T21:45:28.880Z,2.10
2024-02-13T21:55:31.950Z,2.23
2024-02-13T22:05:37.750Z,1.80
2024-02-13T22:15:41.406Z,1.80
2024-02-13T22:25:45.507Z,1.90
2024-02-13T22:35:49.353Z,1.00
2024-02-13T22:45:53.680Z,0.90
2024-02-13T22:55:56.603Z,1.10
2024-02-13T23:06:02.474Z,1.17
2024-02-13T23:16:07.938Z,0.77
2024-02-13T23:26:13.960Z,0.80
2024-02-13T23:36:16.968Z,0.60
2024-02-13T23:46:21.162Z,0.83
2024-02-13T23:56:23.907Z,0.60
